Time;durP1;ratioP1;P1;durP2;ratioP2;P2;SDS_P1;SDS_P2;PMS_P1;PMS_P2;Temp;Humidity;BMP_temperature;BMP_pressure;BME280_temperature;BME280_humidity;BME280_pressure;Samples;Min_cycle;Max_cycle;Signal;HPM_P1;HPM_P2
2023/11/14 00:02:11;;;;;;;4.60;2.10;;;12.60;98.00;;;;;;5011549;28;20939;-71
2023/11/14 00:04:40;;;;;;;6.47;2.10;;;12.60;98.00;;;;;;5011773;28;20462;-71
2023/11/14 00:07:07;;;;;;;4.63;2.17;;;12.50;98.00;;;;;;5011663;28;20457;-71
2023/11/14 00:09:34;;;;;;;5.90;1.80;;;12.40;98.00;;;;;;5011653;28;20928;-71
2023/11/14 00:12:02;;;;;;;3.47;1.53;;;12.50;98.00;;;;;;5011590;28;20489;-71
2023/11/14 00:14:29;;;;;;;6.27;2.13;;;12.70;98.00;;;;;;5011497;28;20490;-70
2023/11/14 00:16:56;;;;;;;7.33;2.00;;;12.70;98.00;;;;;;5011697;28;20576;-70
2023/11/14 00:19:23;;;;;;;4.30;1.90;;;12.60;98.00;;;;;;5011769;28;20459;-71
2023/11/14 00:21:52;;;;;;;12.63;2.30;;;12.60;98.00;;;;;;5011607;28;20444;-71
2023/11/14 00:24:19;;;;;;;4.73;1.90;;;12.60;98.00;;;;;;5011580;28;20454;-71
2023/11/14 00:26:47;;;;;;;3.27;1.70;;;12.60;98.00;;;;;;5010256;28;20854;-70
2023/11/14 00:29:14;;;;;;;2.67;1.80;;;12.60;98.00;;;;;;5011425;28;20461;-70
2023/11/14 00:31:41;;;;;;;4.40;2.00;;;12.50;98.00;;;;;;5011389;28;20457;-70
2023/11/14 00:34:08;;;;;;;4.70;1.90;;;12.50;98.00;;;;;;5010105;28;20486;-70
2023/11/14 00:36:35;;;;;;;4.70;1.70;;;12.50;98.00;;;;;;5011533;28;20454;-70
2023/11/14 00:39:05;;;;;;;3.67;1.90;;;12.60;98.00;;;;;;5011346;28;20458;-71
2023/11/14 00:41:32;;;;;;;6.43;1.80;;;12.60;98.00;;;;;;5010434;28;20453;-71
2023/11/14 00:43:59;;;;;;;7.83;1.70;;;12.60;98.00;;;;;;5011390;28;20451;-70
2023/11/14 00:46:26;;;;;;;8.00;2.43;;;12.60;98.00;;;;;;5011691;28;20461;-70
2023/11/14 00:48:53;;;;;;;5.00;1.83;;;12.60;98.00;;;;;;5011451;28;20955;-71
2023/11/14 00:51:21;;;;;;;7.40;2.07;;;12.50;98.00;;;;;;5010032;28;20457;-70
2023/11/14 00:53:50;;;;;;;5.43;2.07;;;12.60;98.00;;;;;;5011237;28;20846;-71
2023/11/14 00:56:19;;;;;;;5.17;1.87;;;12.60;98.00;;;;;;5010941;28;20460;-70
2023/11/14 00:58:46;;;;;;;6.90;1.83;;;12.50;98.00;;;;;;5011104;28;20475;-70
2023/11/14 01:01:13;;;;;;;5.23;2.00;;;12.50;98.00;;;;;;5010971;28;20449;-70
2023/11/14 01:03:40;;;;;;;3.90;2.03;;;12.50;98.00;;;;;;5010084;28;20956;-71
2023/11/14 01:06:08;;;;;;;4.13;1.67;;;12.60;98.00;;;;;;5011134;28;20462;-70
2023/11/14 01:08:35;;;;;;;7.73;1.90;;;12.70;98.00;;;;;;5011062;28;20463;-71
2023/11/14 01:11:02;;;;;;;4.40;1.70;;;12.70;98.00;;;;;;5009657;28;20467;-70
2023/11/14 01:13:31;;;;;;;4.20;2.10;;;12.70;98.00;;;;;;5011432;28;20458;-70
2023/11/14 01:15:58;;;;;;;4.43;1.80;;;12.50;98.00;;;;;;5009796;28;20445;-70
2023/11/14 01:18:25;;;;;;;4.30;1.60;;;12.60;98.00;;;;;;5011061;28;20968;-70
2023/11/14 01:20:52;;;;;;;2.80;1.83;;;12.70;98.00;;;;;;5010936;28;20481;-70
2023/11/14 01:23:19;;;;;;;6.60;2.20;;;12.60;98.00;;;;;;5010888;28;20453;-71
2023/11/14 01:25:46;;;;;;;2.73;1.70;;;12.60;98.00;;;;;;5014253;28;20457;-71
2023/11/14 01:28:14;;;;;;;3.90;1.70;;;12.50;98.00;;;;;;5013391;28;20822;-70
2023/11/14 01:30:42;;;;;;;4.87;1.90;;;12.40;98.00;;;;;;5013311;28;20462;-70
2023/11/14 01:33:09;;;;;;;5.70;1.90;;;12.30;98.00;;;;;;5013140;28;20466;-71
2023/11/14 01:35:36;;;;;;;4.00;2.00;;;12.20;98.00;;;;;;5014412;28;21005;-70
2023/11/14 01:38:03;;;;;;;5.80;2.20;;;12.20;98.00;;;;;;5014225;28;20463;-71
2023/11/14 01:40:31;;;;;;;3.43;1.73;;;12.20;98.00;;;;;;5014344;28;20462;-71
2023/11/14 01:43:02;;;;;;;11.43;2.03;;;12.20;98.00;;;;;;5013128;28;20872;-71
2023/11/14 01:45:30;;;;;;;9.47;2.00;;;12.20;98.00;;;;;;5014402;28;20794;-71
2023/11/14 01:47:59;;;;;;;7.57;2.07;;;12.20;98.00;;;;;;5014276;28;20505;-71
2023/11/14 01:50:26;;;;;;;7.03;2.30;;;12.20;98.00;;;;;;5014018;28;20454;-71
2023/11/14 01:52:54;;;;;;;8.30;1.90;;;12.30;98.00;;;;;;5013971;28;20514;-71
2023/11/14 01:55:25;;;;;;;6.57;2.07;;;12.20;98.00;;;;;;5014115;28;20687;-71
2023/11/14 01:57:53;;;;;;;4.70;1.93;;;12.20;98.00;;;;;;5013963;28;20472;-71
2023/11/14 02:00:21;;;;;;;5.43;2.10;;;12.20;98.00;;;;;;4996516;28;20990;-71
2023/11/14 02:02:56;;;;;;;4.10;1.67;;;12.20;98.00;;;;;;5012719;28;20449;-71
2023/11/14 02:05:27;;;;;;;7.00;1.97;;;12.20;98.00;;;;;;5012927;28;20559;-70
2023/11/14 02:07:54;;;;;;;11.27;2.00;;;12.20;98.00;;;;;;5013701;28;20861;-71
2023/11/14 02:10:21;;;;;;;5.10;1.70;;;12.10;98.00;;;;;;5013645;28;20457;-71
2023/11/14 02:12:48;;;;;;;5.03;1.67;;;12.10;98.00;;;;;;5013687;28;20501;-71
2023/11/14 02:15:15;;;;;;;3.73;1.60;;;12.10;98.00;;;;;;5012308;28;20490;-71
2023/11/14 02:17:44;;;;;;;4.10;1.77;;;12.20;98.00;;;;;;5013572;28;20453;-71
2023/11/14 02:20:12;;;;;;;8.10;2.30;;;12.10;98.00;;;;;;5013503;28;20600;-70
2023/11/14 02:22:41;;;;;;;4.30;1.80;;;12.10;98.00;;;;;;5013624;28;20556;-71
2023/11/14 02:25:10;;;;;;;3.20;1.93;;;12.00;98.00;;;;;;5013547;28;20456;-71
2023/11/14 02:27:37;;;;;;;3.93;1.90;;;12.00;98.00;;;;;;5013585;28;20462;-71
2023/11/14 02:30:06;;;;;;;5.77;2.20;;;12.10;98.00;;;;;;5013436;28;20462;-71
2023/11/14 02:32:33;;;;;;;5.70;1.80;;;12.20;98.00;;;;;;5013447;28;20468;-71
2023/11/14 02:35:00;;;;;;;2.47;1.50;;;12.30;98.00;;;;;;5012899;28;20480;-71
2023/11/14 02:37:27;;;;;;;6.40;2.27;;;12.30;98.00;;;;;;5012710;28;20853;-70
2023/11/14 02:39:56;;;;;;;6.77;2.00;;;12.20;98.00;;;;;;5012837;28;20502;-71
2023/11/14 02:42:25;;;;;;;2.97;1.80;;;12.20;98.00;;;;;;5011901;28;20459;-71
2023/11/14 02:44:52;;;;;;;8.20;2.60;;;12.10;98.00;;;;;;5011884;28;21000;-71
2023/11/14 02:47:20;;;;;;;16.37;2.53;;;12.10;98.00;;;;;;5012929;28;20453;-70
2023/11/14 02:50:04;;;;;;;4.33;1.80;;;12.10;98.00;;;;;;5011789;28;20947;-71
2023/11/14 02:52:37;;;;;;;4.70;1.97;;;12.10;98.00;;;;;;5012997;28;20547;-70
2023/11/14 02:55:05;;;;;;;5.77;2.00;;;12.10;98.00;;;;;;5011702;28;20723;-71
2023/11/14 02:57:35;;;;;;;6.83;2.17;;;12.00;98.00;;;;;;5012665;28;20473;-71
2023/11/14 03:00:04;;;;;;;4.77;2.10;;;12.00;98.00;;;;;;5012862;28;20458;-70
2023/11/14 03:02:31;;;;;;;4.77;2.13;;;12.00;98.00;;;;;;5012631;28;20460;-70
2023/11/14 03:04:58;;;;;;;10.07;1.73;;;12.00;98.00;;;;;;5012760;28;20455;-70
2023/11/14 03:07:25;;;;;;;5.00;1.80;;;12.00;98.00;;;;;;5012685;28;20546;-71
2023/11/14 03:09:55;;;;;;;7.93;1.77;;;11.90;98.00;;;;;;5011611;28;20516;-70
2023/11/14 03:12:22;;;;;;;8.23;2.07;;;11.90;98.00;;;;;;5012519;28;20443;-71
2023/11/14 03:14:52;;;;;;;6.03;2.30;;;11.90;98.00;;;;;;5011373;28;20486;-70
2023/11/14 03:17:19;;;;;;;4.43;1.87;;;11.90;98.00;;;;;;5011168;28;20469;-70
2023/11/14 03:19:47;;;;;;;6.63;2.17;;;11.90;98.00;;;;;;5011102;28;20463;-71
2023/11/14 03:22:14;;;;;;;5.23;1.90;;;11.90;98.00;;;;;;5012318;28;20955;-71
2023/11/14 03:24:41;;;;;;;2.10;1.60;;;11.90;98.00;;;;;;5012381;28;20464;-71
2023/11/14 03:27:09;;;;;;;3.23;1.57;;;11.90;98.00;;;;;;5012369;28;20531;-71
2023/11/14 03:29:35;;;;;;;3.30;2.00;;;11.90;98.00;;;;;;5011139;28;20456;-71
2023/11/14 03:32:06;;;;;;;4.17;1.80;;;12.00;98.00;;;;;;5012080;28;20484;-70
2023/11/14 03:34:33;;;;;;;8.10;2.47;;;12.10;98.00;;;;;;5012108;28;21001;-70
2023/11/14 03:37:00;;;;;;;3.73;1.90;;;12.00;98.00;;;;;;5012225;28;20462;-71
2023/11/14 03:39:29;;;;;;;5.67;2.07;;;12.00;98.00;;;;;;5012190;28;20462;-71
2023/11/14 03:41:56;;;;;;;4.57;1.70;;;12.00;98.00;;;;;;5012106;28;20452;-71
2023/11/14 03:44:23;;;;;;;6.60;2.07;;;12.00;98.00;;;;;;5010777;28;20493;-70
2023/11/14 03:46:50;;;;;;;2.90;1.60;;;12.10;98.00;;;;;;5011692;28;20473;-71
2023/11/14 03:49:18;;;;;;;5.67;2.20;;;12.10;98.00;;;;;;5011793;28;20959;-70
2023/11/14 03:51:45;;;;;;;4.87;2.00;;;12.00;98.00;;;;;;5011832;28;20480;-71
2023/11/14 03:54:15;;;;;;;6.20;2.20;;;12.00;98.00;;;;;;5011840;28;20923;-70
2023/11/14 03:56:42;;;;;;;9.17;2.37;;;12.00;98.00;;;;;;5011622;28;20494;-71
2023/11/14 03:59:10;;;;;;;6.73;1.90;;;12.00;98.00;;;;;;5011867;28;20489;-71
2023/11/14 04:01:37;;;;;;;6.17;2.50;;;12.00;98.00;;;;;;5012068;28;20465;-71
2023/11/14 04:04:05;;;;;;;7.90;2.37;;;12.00;98.00;;;;;;5010491;28;21004;-70
2023/11/14 04:06:33;;;;;;;5.17;2.13;;;11.90;98.00;;;;;;5012009;28;20462;-71
2023/11/14 04:09:00;;;;;;;4.93;1.80;;;11.80;98.00;;;;;;5011855;28;20462;-70
2023/11/14 04:11:27;;;;;;;5.90;2.07;;;11.80;98.00;;;;;;5011861;28;20959;-70
2023/11/14 04:13:54;;;;;;;5.97;2.00;;;11.80;98.00;;;;;;5011686;28;20840;-70
2023/11/14 04:16:24;;;;;;;4.77;2.20;;;11.90;98.00;;;;;;5011762;28;20973;-71
2023/11/14 04:18:51;;;;;;;1.90;1.63;;;11.90;98.00;;;;;;5011948;28;20464;-71
2023/11/14 04:21:19;;;;;;;8.93;2.20;;;11.80;98.00;;;;;;5011541;28;20993;-71
2023/11/14 04:23:48;;;;;;;5.77;1.90;;;11.80;98.00;;;;;;5011610;28;20961;-70
2023/11/14 04:26:15;;;;;;;8.40;2.00;;;11.80;98.00;;;;;;5011440;28;20977;-70
2023/11/14 04:28:43;;;;;;;6.60;2.20;;;11.80;98.00;;;;;;5011448;28;20537;-70
2023/11/14 04:31:10;;;;;;;9.50;2.20;;;11.80;98.00;;;;;;5011366;28;20495;-70
2023/11/14 04:33:37;;;;;;;4.83;2.10;;;11.60;98.00;;;;;;5011410;28;20461;-70
2023/11/14 04:36:07;;;;;;;5.00;2.20;;;11.60;98.00;;;;;;5011251;28;20508;-71
2023/11/14 04:38:34;;;;;;;5.00;2.20;;;11.60;98.00;;;;;;5011471;28;20508;-70
2023/11/14 04:41:03;;;;;;;4.63;2.00;;;11.60;98.00;;;;;;5011342;28;20456;-71
2023/11/14 04:43:30;;;;;;;3.73;2.27;;;11.70;98.00;;;;;;5011468;28;20456;-70
2023/11/14 04:45:57;;;;;;;10.93;2.60;;;11.70;98.00;;;;;;5011322;28;20456;-71
2023/11/14 04:48:24;;;;;;;3.70;1.93;;;11.70;98.00;;;;;;5011289;28;20543;-70
2023/11/14 04:50:52;;;;;;;3.07;2.30;;;11.60;98.00;;;;;;5011322;28;20914;-70
2023/11/14 04:53:19;;;;;;;5.83;2.30;;;11.60;98.00;;;;;;5011046;28;20954;-71
2023/11/14 04:55:46;;;;;;;3.47;2.00;;;11.70;98.00;;;;;;5010993;28;20491;-70
2023/11/14 04:58:14;;;;;;;3.63;2.00;;;11.70;98.00;;;;;;5011147;28;20947;-71
2023/11/14 05:00:42;;;;;;;4.67;2.23;;;11.60;98.00;;;;;;5014530;28;20460;-70
2023/11/14 05:03:09;;;;;;;3.50;2.10;;;11.60;98.00;;;;;;5015004;28;20454;-71
2023/11/14 05:05:36;;;;;;;2.77;2.07;;;11.60;98.00;;;;;;5015260;28;20529;-71
2023/11/14 05:08:03;;;;;;;4.90;2.20;;;11.50;98.00;;;;;;5014934;28;20525;-70
2023/11/14 05:10:30;;;;;;;2.97;2.03;;;11.50;98.00;;;;;;5014750;28;20460;-70
2023/11/14 05:12:59;;;;;;;6.40;2.50;;;11.50;98.00;;;;;;5014713;28;20955;-70
2023/11/14 05:15:27;;;;;;;6.00;2.20;;;11.60;98.00;;;;;;5014805;28;20518;-70
2023/11/14 05:17:56;;;;;;;4.70;2.00;;;11.60;98.00;;;;;;5014679;28;20468;-73
2023/11/14 05:20:23;;;;;;;3.97;2.13;;;11.50;98.00;;;;;;5014791;28;20452;-70
2023/11/14 05:22:51;;;;;;;4.07;2.10;;;11.60;98.00;;;;;;5014626;28;20456;-70
2023/11/14 05:25:18;;;;;;;11.03;2.70;;;11.60;98.00;;;;;;5014558;28;20448;-70
2023/11/14 05:27:45;;;;;;;9.50;2.30;;;11.70;98.00;;;;;;5014451;28;20956;-70
2023/11/14 05:30:13;;;;;;;3.43;2.03;;;11.60;98.00;;;;;;5013227;28;20459;-70
2023/11/14 05:32:41;;;;;;;6.10;2.53;;;11.60;98.00;;;;;;5014344;28;20465;-70
2023/11/14 05:35:09;;;;;;;6.17;2.17;;;11.60;98.00;;;;;;5014272;28;20456;-71
2023/11/14 05:37:36;;;;;;;4.90;2.30;;;11.60;98.00;;;;;;5014206;28;20500;-70
2023/11/14 05:40:05;;;;;;;4.70;2.13;;;11.60;98.00;;;;;;5014209;28;20456;-70
2023/11/14 05:42:32;;;;;;;2.30;1.90;;;11.60;98.00;;;;;;5014359;28;20462;-70
2023/11/14 05:44:59;;;;;;;3.47;2.30;;;11.70;98.00;;;;;;5014229;28;20465;-71
2023/11/14 05:47:26;;;;;;;7.20;2.33;;;11.70;98.00;;;;;;5014233;28;20862;-71
2023/11/14 05:49:54;;;;;;;7.50;2.40;;;11.60;98.00;;;;;;5014042;28;20455;-70
2023/11/14 05:52:21;;;;;;;4.00;2.00;;;11.60;98.00;;;;;;5014504;28;20457;-71
2023/11/14 05:54:48;;;;;;;2.70;1.90;;;11.60;98.00;;;;;;5014436;28;20883;-71
2023/11/14 05:57:16;;;;;;;8.30;2.33;;;11.70;98.00;;;;;;5012718;28;20508;-70
2023/11/14 05:59:45;;;;;;;4.57;2.03;;;11.70;98.00;;;;;;5014003;28;20809;-70
2023/11/14 06:02:12;;;;;;;5.30;1.90;;;11.60;98.00;;;;;;5013813;28;20465;-72
2023/11/14 06:04:39;;;;;;;6.93;2.07;;;11.70;98.00;;;;;;5012660;28;20460;-70
2023/11/14 06:07:08;;;;;;;2.87;1.90;;;11.60;98.00;;;;;;5013800;28;20879;-70
2023/11/14 06:09:36;;;;;;;2.63;1.97;;;11.60;98.00;;;;;;5013480;28;20464;-70
2023/11/14 06:12:03;;;;;;;7.03;2.50;;;11.70;98.00;;;;;;5013578;28;20465;-71
2023/11/14 06:14:31;;;;;;;6.13;2.10;;;11.70;98.00;;;;;;5013564;28;20458;-70
2023/11/14 06:16:58;;;;;;;5.10;2.10;;;11.70;98.00;;;;;;5013651;28;20842;-71
2023/11/14 06:19:27;;;;;;;5.13;2.03;;;11.70;98.00;;;;;;5013586;28;20464;-71
2023/11/14 06:21:55;;;;;;;2.77;1.90;;;11.80;98.00;;;;;;5013495;28;20450;-70
2023/11/14 06:24:23;;;;;;;4.07;2.10;;;11.80;98.00;;;;;;5013437;28;20457;-70
2023/11/14 06:26:50;;;;;;;4.80;2.23;;;11.70;98.00;;;;;;5013436;28;20456;-71
2023/11/14 06:29:17;;;;;;;2.67;2.00;;;11.70;98.00;;;;;;5012079;28;20464;-70
2023/11/14 06:31:44;;;;;;;3.80;2.03;;;11.60;98.00;;;;;;5013277;28;20544;-70
2023/11/14 06:34:12;;;;;;;8.63;2.20;;;11.70;98.00;;;;;;5013157;28;20519;-70
2023/11/14 06:36:40;;;;;;;6.53;2.83;;;11.70;98.00;;;;;;5013174;28;20577;-70
2023/11/14 06:39:07;;;;;;;10.37;3.63;;;11.70;98.00;;;;;;5013180;28;20494;-70
2023/11/14 06:41:36;;;;;;;10.13;3.37;;;11.80;98.00;;;;;;5011821;28;20460;-70
2023/11/14 06:44:03;;;;;;;6.80;2.80;;;11.70;98.00;;;;;;5013088;28;20447;-70
2023/11/14 06:46:30;;;;;;;6.90;3.30;;;11.80;98.00;;;;;;5011917;28;20456;-70
2023/11/14 06:48:57;;;;;;;8.87;3.67;;;11.70;98.00;;;;;;5012917;28;20456;-70
2023/11/14 06:51:24;;;;;;;8.90;2.63;;;11.60;98.00;;;;;;5012811;28;20461;-71
2023/11/14 06:53:51;;;;;;;8.30;3.33;;;11.40;98.00;;;;;;5012928;28;20456;-70
2023/11/14 06:56:19;;;;;;;10.27;3.27;;;11.30;98.00;;;;;;5012642;28;21161;-70
2023/11/14 06:58:48;;;;;;;4.23;2.70;;;11.20;98.00;;;;;;5012804;28;20448;-64
2023/11/14 07:01:15;;;;;;;4.93;3.10;;;11.30;98.00;;;;;;5012748;28;20453;-64
2023/11/14 07:03:43;;;;;;;6.30;3.20;;;11.20;98.00;;;;;;5012669;28;20468;-65
2023/11/14 07:06:11;;;;;;;4.90;3.00;;;11.10;98.00;;;;;;5012865;28;20485;-64
2023/11/14 07:08:39;;;;;;;5.10;2.87;;;11.10;98.00;;;;;;5012665;28;20540;-64
2023/11/14 07:11:07;;;;;;;9.03;3.17;;;11.10;98.00;;;;;;5012601;28;20458;-64
2023/11/14 07:13:34;;;;;;;3.67;2.37;;;11.10;98.00;;;;;;5011501;28;20815;-64
2023/11/14 07:16:03;;;;;;;5.73;2.13;;;11.20;98.00;;;;;;5011320;28;20480;-65
2023/11/14 07:18:30;;;;;;;2.90;1.87;;;11.30;98.00;;;;;;5012629;28;20461;-65
2023/11/14 07:20:58;;;;;;;4.00;1.77;;;11.30;98.00;;;;;;5012316;28;20447;-65
2023/11/14 07:23:25;;;;;;;4.57;1.80;;;11.40;98.00;;;;;;5012038;28;20455;-64
2023/11/14 07:25:53;;;;;;;3.40;1.70;;;11.50;98.00;;;;;;5011239;28;20474;-65
2023/11/14 07:28:20;;;;;;;7.63;1.90;;;11.50;98.00;;;;;;5011317;28;20545;-64
2023/11/14 07:30:48;;;;;;;2.90;1.80;;;11.70;98.00;;;;;;5012447;28;20455;-65
2023/11/14 07:33:16;;;;;;;6.20;1.87;;;11.80;98.00;;;;;;5012619;28;20826;-65
2023/11/14 07:35:44;;;;;;;1.73;1.60;;;11.80;98.00;;;;;;5011333;28;20462;-65
2023/11/14 07:38:11;;;;;;;3.40;2.07;;;11.90;98.00;;;;;;5012144;28;20467;-64
2023/11/14 07:40:38;;;;;;;1.77;1.50;;;11.90;98.00;;;;;;5012263;28;20467;-65
2023/11/14 07:43:05;;;;;;;5.70;2.10;;;12.00;98.00;;;;;;5010930;28;20458;-65
2023/11/14 07:45:33;;;;;;;1.60;1.60;;;12.10;98.00;;;;;;5012430;28;20549;-64
2023/11/14 07:48:00;;;;;;;2.87;1.60;;;12.20;98.00;;;;;;5011841;28;20459;-64
2023/11/14 07:50:29;;;;;;;2.33;1.80;;;12.20;98.00;;;;;;5012001;28;20537;-65
2023/11/14 07:52:57;;;;;;;2.63;1.63;;;12.20;98.00;;;;;;5011771;28;20689;-65
2023/11/14 07:55:25;;;;;;;4.33;1.80;;;12.20;98.00;;;;;;5012128;28;20490;-64
2023/11/14 07:57:52;;;;;;;2.10;1.70;;;12.10;98.00;;;;;;5011635;28;20555;-65
2023/11/14 08:00:20;;;;;;;1.97;1.40;;;12.20;98.00;;;;;;5011844;28;20450;-65
2023/11/14 08:02:48;;;;;;;1.67;1.60;;;12.20;98.00;;;;;;5011498;28;20533;-64
2023/11/14 08:05:16;;;;;;;2.53;1.70;;;12.20;98.00;;;;;;5011628;28;20836;-65
2023/11/14 08:07:44;;;;;;;3.70;1.80;;;12.20;98.00;;;;;;5011758;28;20449;-64
2023/11/14 08:10:11;;;;;;;1.70;1.50;;;12.20;98.00;;;;;;4994140;28;20825;-64
2023/11/14 08:12:39;;;;;;;2.43;1.80;;;12.20;98.00;;;;;;5011613;28;20461;-64
2023/11/14 08:15:07;;;;;;;7.33;1.87;;;12.20;98.00;;;;;;5011466;28;21028;-65
2023/11/14 08:17:35;;;;;;;2.80;1.87;;;12.20;98.00;;;;;;5011538;28;20531;-63
2023/11/14 08:20:03;;;;;;;2.33;1.80;;;12.20;98.00;;;;;;4993686;28;20942;-65
2023/11/14 08:22:30;;;;;;;2.73;1.80;;;12.20;98.00;;;;;;5011860;28;20457;-64
2023/11/14 08:24:58;;;;;;;3.70;1.83;;;12.30;98.00;;;;;;5011443;28;20510;-64
2023/11/14 08:27:26;;;;;;;3.53;1.70;;;12.20;98.00;;;;;;4994225;28;20468;-63
2023/11/14 08:29:53;;;;;;;2.33;1.60;;;12.30;98.00;;;;;;5011493;28;20487;-64
2023/11/14 08:32:20;;;;;;;3.30;1.77;;;12.30;98.00;;;;;;4993969;28;20821;-64
2023/11/14 08:34:48;;;;;;;2.50;1.60;;;12.30;98.00;;;;;;5013494;28;20449;-64
2023/11/14 08:37:15;;;;;;;3.60;1.63;;;12.40;98.00;;;;;;5015319;28;20524;-65
2023/11/14 08:39:42;;;;;;;3.00;1.70;;;12.40;98.00;;;;;;5015388;28;20449;-64
2023/11/14 08:42:11;;;;;;;3.90;1.83;;;12.40;98.00;;;;;;5015428;28;20813;-64
2023/11/14 08:44:38;;;;;;;3.10;1.83;;;12.30;98.00;;;;;;5015202;28;20553;-65
2023/11/14 08:47:06;;;;;;;2.37;1.70;;;12.30;98.00;;;;;;5015418;28;20514;-64
2023/11/14 08:49:33;;;;;;;5.50;1.63;;;12.30;98.00;;;;;;4997937;28;20882;-65
2023/11/14 08:52:00;;;;;;;2.70;1.70;;;12.30;98.00;;;;;;5015088;28;20485;-61
2023/11/14 08:54:27;;;;;;;1.93;1.50;;;12.30;98.00;;;;;;5015189;28;20449;-65
2023/11/14 08:56:55;;;;;;;1.60;1.47;;;12.30;98.00;;;;;;4997697;28;20511;-64
2023/11/14 08:59:23;;;;;;;6.60;1.60;;;12.30;98.00;;;;;;5014928;28;20461;-64
2023/11/14 09:01:54;;;;;;;3.93;1.47;;;12.30;98.00;;;;;;5015154;28;20519;-64
2023/11/14 09:04:21;;;;;;;2.27;1.60;;;12.30;98.00;;;;;;5015092;28;20455;-65
2023/11/14 09:06:48;;;;;;;8.00;1.60;;;12.20;98.00;;;;;;5015137;28;20858;-65
2023/11/14 09:09:18;;;;;;;3.50;1.60;;;12.30;98.00;;;;;;5015075;28;20461;-64
2023/11/14 09:11:45;;;;;;;2.27;1.40;;;12.40;98.00;;;;;;5015184;28;20481;-65
2023/11/14 09:14:12;;;;;;;1.80;1.40;;;12.40;98.00;;;;;;4997844;28;20456;-65
2023/11/14 09:16:40;;;;;;;4.93;1.53;;;12.40;98.00;;;;;;5014933;28;20494;-66
2023/11/14 09:19:14;;;;;;;1.40;1.37;;;12.40;98.00;;;;;;5014757;28;20870;-66
2023/11/14 09:21:47;;;;;;;1.73;1.60;;;12.40;98.00;;;;;;5014867;28;20456;-65
2023/11/14 09:24:14;;;;;;;4.07;1.50;;;12.40;98.00;;;;;;4997426;28;20454;-66
2023/11/14 09:26:42;;;;;;;1.37;1.37;;;12.40;98.00;;;;;;5013650;28;20461;-65
2023/11/14 09:29:22;;;;;;;2.13;1.50;;;12.40;98.00;;;;;;5014763;28;20838;-65
2023/11/14 09:31:51;;;;;;;2.40;1.40;;;12.50;98.00;;;;;;5014911;28;20453;-66
2023/11/14 09:34:18;;;;;;;2.77;1.50;;;12.50;98.00;;;;;;5014680;28;20456;-66
2023/11/14 09:36:46;;;;;;;3.40;1.40;;;12.50;98.00;;;;;;5014436;28;20526;-66
2023/11/14 09:39:14;;;;;;;1.80;1.70;;;12.40;98.00;;;;;;5014683;28;20971;-66
2023/11/14 09:41:43;;;;;;;2.03;1.60;;;12.50;98.00;;;;;;5014683;28;20456;-65
2023/11/14 09:44:12;;;;;;;4.30;1.50;;;12.60;98.00;;;;;;5014500;28;20458;-66
2023/11/14 09:46:43;;;;;;;1.50;1.40;;;12.60;98.00;;;;;;5014161;28;20507;-65
2023/11/14 09:49:18;;;;;;;3.33;1.40;;;12.50;98.00;;;;;;5014377;28;20486;-66
2023/11/14 09:51:46;;;;;;;3.00;1.60;;;12.50;98.00;;;;;;5014683;28;20464;-66
2023/11/14 09:56:48;;;;;;;5.17;1.70;;;12.40;98.00;;;;;;4992722;28;20853;-65
2023/11/14 09:59:16;;;;;;;5.70;1.40;;;12.40;98.00;;;;;;4994269;28;20493;-66
2023/11/14 10:01:43;;;;;;;2.13;1.60;;;12.40;98.00;;;;;;4993007;28;20450;-65
2023/11/14 10:04:11;;;;;;;1.70;1.50;;;12.50;98.00;;;;;;4994154;28;20668;-65
2023/11/14 10:06:41;;;;;;;2.40;1.50;;;12.50;98.00;;;;;;4994404;28;20480;-65
2023/11/14 10:09:09;;;;;;;3.37;1.50;;;12.50;98.00;;;;;;4994278;28;20570;-65
2023/11/14 10:11:45;;;;;;;3.43;1.63;;;12.40;98.00;;;;;;4994414;28;20804;-65
2023/11/14 10:14:13;;;;;;;2.30;1.50;;;12.40;98.00;;;;;;4994155;28;20460;-65
2023/11/14 10:16:40;;;;;;;3.60;1.50;;;12.40;98.00;;;;;;4994116;28;20483;-65
2023/11/14 10:19:12;;;;;;;2.40;1.40;;;12.50;98.00;;;;;;4993940;28;20454;-65
2023/11/14 10:21:41;;;;;;;2.33;1.50;;;12.50;98.00;;;;;;4994379;28;20463;-65
2023/11/14 10:24:16;;;;;;;1.70;1.40;;;12.50;98.00;;;;;;4994383;28;20462;-65
2023/11/14 10:26:50;;;;;;;2.43;1.50;;;12.50;98.00;;;;;;4994460;28;20459;-65
2023/11/14 10:29:18;;;;;;;1.90;1.40;;;12.50;98.00;;;;;;4994524;28;20455;-65
2023/11/14 10:31:46;;;;;;;1.50;1.40;;;12.50;98.00;;;;;;4994539;28;20865;-65
2023/11/14 10:34:27;;;;;;;5.33;1.60;;;12.60;98.00;;;;;;4994409;28;20453;-64
2023/11/14 10:36:56;;;;;;;2.33;1.70;;;12.50;98.00;;;;;;4994502;28;20493;-64
2023/11/14 10:39:24;;;;;;;1.70;1.43;;;12.60;98.00;;;;;;4994443;28;20799;-65
2023/11/14 10:41:52;;;;;;;4.70;1.30;;;12.60;98.00;;;;;;4993757;28;20457;-64
2023/11/14 10:44:20;;;;;;;5.10;1.40;;;12.70;98.00;;;;;;4994568;28;20464;-65
2023/11/14 10:46:49;;;;;;;2.00;1.40;;;12.70;98.00;;;;;;4994651;28;20801;-65
2023/11/14 10:49:17;;;;;;;2.50;1.40;;;12.80;98.00;;;;;;4994034;28;20494;-65
2023/11/14 10:51:47;;;;;;;4.80;1.37;;;12.80;98.00;;;;;;4994407;28;20462;-65
2023/11/14 10:54:16;;;;;;;2.30;1.57;;;12.80;98.00;;;;;;4992955;28;20815;-65
2023/11/14 10:56:45;;;;;;;2.27;1.50;;;12.80;98.00;;;;;;4992797;28;20520;-65
2023/11/14 10:59:14;;;;;;;6.00;1.40;;;12.90;98.00;;;;;;4993854;28;20489;-64
2023/11/14 11:01:44;;;;;;;3.00;1.83;;;12.90;98.00;;;;;;4994150;28;20950;-65
2023/11/14 11:04:13;;;;;;;2.67;1.37;;;12.90;98.00;;;;;;4993713;28;20461;-65
2023/11/14 11:06:40;;;;;;;1.40;1.27;;;12.90;98.00;;;;;;4993711;28;20986;-65
2023/11/14 11:09:10;;;;;;;1.43;1.30;;;12.90;98.00;;;;;;4993754;28;20875;-65
2023/11/14 11:11:42;;;;;;;2.67;1.60;;;12.90;98.00;;;;;;4993714;28;20933;-65
2023/11/14 11:14:13;;;;;;;1.70;1.30;;;12.90;98.00;;;;;;4993604;28;21024;-65
2023/11/14 11:16:44;;;;;;;7.93;1.60;;;12.90;98.00;;;;;;4992216;28;20451;-65
2023/11/14 11:19:12;;;;;;;2.70;1.50;;;12.90;98.00;;;;;;4993483;28;20459;-65
2023/11/14 11:21:39;;;;;;;1.67;1.30;;;12.90;98.00;;;;;;4993505;28;20539;-65
2023/11/14 11:24:10;;;;;;;2.70;1.47;;;13.00;98.00;;;;;;4993350;28;20539;-65
2023/11/14 11:27:12;;;;;;;2.10;1.33;;;13.00;98.00;;;;;;4992349;28;20480;-66
2023/11/14 11:29:50;;;;;;;2.40;1.50;;;12.90;98.00;;;;;;4988863;28;20523;-65
2023/11/14 11:32:26;;;;;;;2.53;1.40;;;12.90;98.00;;;;;;4993317;28;20465;-65
2023/11/14 11:35:24;;;;;;;2.03;1.40;;;13.00;98.00;;;;;;4993205;28;20941;-65
2023/11/14 11:37:53;;;;;;;2.33;1.40;;;13.00;98.00;;;;;;4993236;28;21017;-64
2023/11/14 11:40:25;;;;;;;2.17;1.50;;;13.10;98.00;;;;;;4993063;28;20467;-65
2023/11/14 11:42:55;;;;;;;3.33;1.30;;;13.10;98.00;;;;;;4993333;28;20854;-65
2023/11/14 11:45:45;;;;;;;3.20;1.87;;;13.10;98.00;;;;;;4993046;28;20543;-64
2023/11/14 11:48:30;;;;;;;2.27;1.50;;;13.10;98.00;;;;;;4989295;28;20997;-65
2023/11/14 11:51:19;;;;;;;3.10;1.50;;;13.20;98.00;;;;;;4993030;28;20463;-65
2023/11/14 11:53:49;;;;;;;2.93;1.40;;;13.20;98.00;;;;;;4993044;28;20494;-65
2023/11/14 11:56:40;;;;;;;2.13;1.80;;;13.10;98.00;;;;;;4992969;28;20458;-65
2023/11/14 11:59:09;;;;;;;1.60;1.40;;;13.10;98.00;;;;;;4992870;28;20486;-64
2023/11/14 12:01:48;;;;;;;1.87;1.50;;;13.00;98.00;;;;;;4992966;28;20459;-65
2023/11/14 12:04:16;;;;;;;1.83;1.43;;;13.00;98.00;;;;;;4993210;28;20824;-64
2023/11/14 12:06:45;;;;;;;4.50;1.70;;;13.00;98.00;;;;;;4993063;28;20498;-64
2023/11/14 12:09:13;;;;;;;4.20;1.87;;;13.00;98.00;;;;;;4991304;28;20458;-65
2023/11/14 12:11:40;;;;;;;3.53;1.80;;;13.00;98.00;;;;;;4992127;28;20451;-65
2023/11/14 12:14:12;;;;;;;1.80;1.30;;;13.10;98.00;;;;;;4991988;28;20463;-65
2023/11/14 12:16:39;;;;;;;2.57;1.50;;;13.10;98.00;;;;;;4992047;28;20461;-64
2023/11/14 12:19:07;;;;;;;5.03;1.50;;;13.10;98.00;;;;;;4992194;28;20565;-64
2023/11/14 12:21:35;;;;;;;4.13;1.60;;;13.10;98.00;;;;;;4992694;28;20460;-65
2023/11/14 12:24:06;;;;;;;1.63;1.47;;;13.10;98.00;;;;;;4992643;28;20521;-65
2023/11/14 12:26:34;;;;;;;1.77;1.50;;;13.20;98.00;;;;;;4993128;28;20825;-65
2023/11/14 12:29:07;;;;;;;2.13;1.50;;;13.20;98.00;;;;;;4992909;28;20448;-64
2023/11/14 12:31:36;;;;;;;3.17;1.60;;;13.30;98.00;;;;;;4992541;28;20457;-65
2023/11/14 12:34:04;;;;;;;2.93;1.70;;;13.30;98.00;;;;;;4992580;28;20462;-65
2023/11/14 12:36:33;;;;;;;1.43;1.40;;;13.20;98.00;;;;;;4992452;28;20813;-65
2023/11/14 12:39:13;;;;;;;4.20;1.53;;;13.20;98.00;;;;;;4992215;28;20589;-65
2023/11/14 12:41:45;;;;;;;7.97;1.90;;;13.20;98.00;;;;;;4992730;28;20478;-65
2023/11/14 12:44:13;;;;;;;2.63;1.47;;;13.20;98.00;;;;;;4992269;28;20454;-65
2023/11/14 12:46:43;;;;;;;2.03;1.37;;;13.20;98.00;;;;;;4992236;28;20467;-65
2023/11/14 12:49:15;;;;;;;3.17;1.43;;;13.30;98.00;;;;;;4992292;28;20471;-65
2023/11/14 12:51:44;;;;;;;1.60;1.30;;;13.30;98.00;;;;;;4992373;28;20969;-65
2023/11/14 12:54:11;;;;;;;2.07;1.40;;;13.30;98.00;;;;;;4990941;28;20445;-65
2023/11/14 12:56:39;;;;;;;5.10;1.60;;;13.30;98.00;;;;;;4990794;28;20475;-65